首页
METAR-TAF:

METAR-TAF

机场 :

Craig, 科羅拉多州, 美国

纬度: 40-29-36N, 经度: 107-31-25W, 海拔: 1888米

当前天气观测

该预报发布于51分钟前的20:53 UTC
风速7节,风向东转东北
温度 3°C
湿度 65%
气压 1020 hPa
能見度: 16.1公里
散云层高于5500英尺

METAR: KCAG 072053Z AUTO 07007KT 10SM SCT055 03/M03 A3013 RMK AO2 RAE43 SLP238 P0000 60000 T00281028 56027

时间: 14:44 (21:44 UTC)


TAF: 丢失

超过4000个机场的气象观测和天气预报(METAR&TAF报告)。

可查询的气象台以黄色和红色小点在地图上表示。

将鼠标移到小点上方,可查看气象台名称。

然后点击查看天气观测和预报。

如需切换地图:点击带黑十字的绿色按钮放大地图;点击带横线的绿色按钮缩小地图;或者点击绿色箭头查看邻近地区的地图。


METAR-TAF: